createdAt,value
2022-07-31T00:00:25.526Z,22.50
2022-07-31T00:02:52.172Z,22.40
2022-07-31T00:05:18.924Z,22.40
2022-07-31T00:07:45.834Z,22.40
2022-07-31T00:10:12.776Z,22.40
2022-07-31T00:12:39.540Z,22.40
2022-07-31T00:15:08.201Z,22.40
2022-07-31T00:17:34.990Z,22.40
2022-07-31T00:20:02.043Z,22.40
2022-07-31T00:22:28.987Z,22.30
2022-07-31T00:24:55.786Z,22.30
2022-07-31T00:27:23.526Z,22.30
2022-07-31T00:29:50.758Z,22.30
2022-07-31T00:32:17.482Z,22.20
2022-07-31T00:34:44.195Z,22.20
2022-07-31T00:37:10.884Z,22.20
2022-07-31T00:39:38.348Z,22.20
2022-07-31T00:42:05.769Z,22.20
2022-07-31T00:44:32.485Z,22.20
2022-07-31T00:46:59.097Z,22.20
2022-07-31T00:49:37.718Z,22.20
2022-07-31T00:52:05.381Z,22.20
2022-07-31T00:54:32.468Z,22.10
2022-07-31T00:56:59.167Z,22.10
2022-07-31T00:59:28.307Z,22.10
2022-07-31T01:01:55.175Z,22.10
2022-07-31T01:04:21.901Z,22.10
2022-07-31T01:06:49.307Z,22.10
2022-07-31T01:09:16.748Z,22.10
2022-07-31T01:12:08.449Z,22.10
2022-07-31T01:14:40.202Z,22.00
2022-07-31T01:17:08.779Z,22.00
2022-07-31T01:19:47.625Z,22.00
2022-07-31T01:22:33.338Z,22.00
2022-07-31T01:25:23.418Z,21.90
2022-07-31T01:28:08.837Z,22.00
2022-07-31T01:31:25.968Z,21.90
2022-07-31T01:34:01.251Z,21.90
2022-07-31T01:36:34.771Z,21.90
2022-07-31T01:39:02.425Z,21.90
2022-07-31T01:41:34.780Z,21.80
2022-07-31T01:44:05.292Z,21.80
2022-07-31T01:46:37.496Z,21.80
2022-07-31T01:49:09.739Z,21.80
2022-07-31T01:51:39.053Z,21.80
2022-07-31T01:54:06.396Z,21.70
2022-07-31T01:56:34.535Z,21.70
2022-07-31T01:59:02.316Z,21.70
2022-07-31T02:01:30.602Z,21.70
2022-07-31T02:04:00.397Z,21.70
2022-07-31T02:06:28.248Z,21.70
2022-07-31T02:08:56.372Z,21.70
2022-07-31T02:11:23.675Z,21.70
2022-07-31T02:13:52.086Z,21.70
2022-07-31T02:16:20.268Z,21.70
2022-07-31T02:18:50.660Z,21.60
2022-07-31T02:21:17.552Z,21.60
2022-07-31T02:23:44.263Z,21.60
2022-07-31T02:26:11.828Z,21.60
2022-07-31T02:28:41.925Z,21.60
2022-07-31T02:31:11.637Z,21.60
2022-07-31T02:33:42.031Z,21.60
2022-07-31T02:36:11.518Z,21.50
2022-07-31T02:38:40.741Z,21.50
2022-07-31T02:41:09.628Z,21.50
2022-07-31T02:43:36.950Z,21.50
2022-07-31T02:46:04.455Z,21.50
2022-07-31T02:48:31.934Z,21.50
2022-07-31T02:50:59.225Z,21.50
2022-07-31T02:53:27.025Z,21.50
2022-07-31T02:55:54.732Z,21.50
2022-07-31T02:58:21.424Z,21.40
2022-07-31T03:00:48.758Z,21.40
2022-07-31T03:03:15.607Z,21.40
2022-07-31T03:05:42.321Z,21.40
2022-07-31T03:08:09.233Z,21.40
2022-07-31T03:10:35.936Z,21.40
2022-07-31T03:13:03.901Z,21.40
2022-07-31T03:15:32.107Z,21.40
2022-07-31T03:17:59.330Z,21.40
2022-07-31T03:20:27.250Z,21.40
2022-07-31T03:22:54.425Z,21.30
2022-07-31T03:25:22.118Z,21.30
2022-07-31T03:27:56.775Z,21.30
2022-07-31T03:30:25.158Z,21.30
2022-07-31T03:32:53.243Z,21.30
2022-07-31T03:35:20.353Z,21.30
2022-07-31T03:37:47.007Z,21.30
2022-07-31T03:40:14.148Z,21.30
2022-07-31T03:42:41.266Z,21.30
2022-07-31T03:45:10.858Z,21.30
2022-07-31T03:47:37.733Z,21.30
2022-07-31T03:50:06.085Z,21.30
2022-07-31T03:52:32.893Z,21.30
2022-07-31T03:54:59.764Z,21.30
2022-07-31T03:57:31.093Z,21.30
2022-07-31T04:00:00.757Z,21.20
2022-07-31T04:02:28.265Z,21.30
2022-07-31T04:04:55.433Z,21.30
2022-07-31T04:07:22.132Z,21.30
2022-07-31T04:09:49.187Z,21.30
2022-07-31T04:12:16.321Z,21.30
2022-07-31T04:14:43.531Z,21.30
2022-07-31T04:17:10.305Z,21.20
2022-07-31T04:19:37.007Z,21.30
2022-07-31T04:22:04.368Z,21.30
2022-07-31T04:24:31.246Z,21.30
2022-07-31T04:26:58.297Z,21.20
2022-07-31T04:29:28.600Z,21.30
2022-07-31T04:31:55.851Z,21.30
2022-07-31T04:34:22.679Z,21.30
2022-07-31T04:36:49.464Z,21.20
2022-07-31T04:39:16.131Z,21.20
2022-07-31T04:41:43.047Z,21.30
2022-07-31T04:44:10.487Z,21.20
2022-07-31T04:46:37.364Z,21.20
2022-07-31T04:49:04.280Z,21.20
2022-07-31T04:51:31.137Z,21.30
2022-07-31T04:53:57.969Z,21.20
2022-07-31T04:56:43.113Z,21.30
2022-07-31T04:59:12.677Z,21.20
2022-07-31T05:01:41.684Z,21.20
2022-07-31T05:04:09.684Z,21.20
2022-07-31T05:06:44.408Z,21.20
2022-07-31T05:09:18.349Z,21.20
2022-07-31T05:11:47.142Z,21.20
2022-07-31T05:14:15.344Z,21.20
2022-07-31T05:16:42.012Z,21.20
2022-07-31T05:19:13.616Z,21.20
2022-07-31T05:21:47.008Z,21.20
2022-07-31T05:24:32.583Z,21.20
2022-07-31T05:27:01.481Z,21.20
2022-07-31T05:29:28.143Z,21.20
2022-07-31T05:32:00.326Z,21.20
2022-07-31T05:34:31.121Z,21.30
2022-07-31T05:37:01.929Z,21.30
2022-07-31T05:39:29.365Z,21.20
2022-07-31T05:41:55.976Z,21.30
2022-07-31T05:44:22.660Z,21.40
2022-07-31T05:49:15.937Z,21.40
2022-07-31T05:51:46.745Z,21.40
2022-07-31T05:54:14.339Z,21.40
2022-07-31T05:56:41.082Z,21.40
2022-07-31T05:59:07.884Z,21.40
2022-07-31T06:01:34.587Z,21.40
2022-07-31T06:04:02.509Z,21.40
2022-07-31T06:06:29.195Z,21.40
2022-07-31T06:08:58.436Z,21.40
2022-07-31T06:11:28.876Z,21.40
2022-07-31T06:13:55.503Z,21.40
2022-07-31T06:16:22.133Z,21.50
2022-07-31T06:18:48.837Z,21.50
2022-07-31T06:23:41.000Z,21.60
2022-07-31T06:26:08.309Z,21.60
2022-07-31T06:28:47.653Z,21.60
2022-07-31T06:31:22.588Z,21.60
2022-07-31T06:33:50.848Z,21.60
2022-07-31T06:36:18.625Z,21.70
2022-07-31T06:38:46.024Z,21.70
2022-07-31T06:41:33.193Z,21.70
2022-07-31T06:43:59.829Z,21.70
2022-07-31T06:46:26.585Z,21.80
2022-07-31T06:48:53.308Z,21.80
2022-07-31T06:51:30.899Z,21.80
2022-07-31T06:54:02.130Z,21.90
2022-07-31T06:56:29.744Z,22.00
2022-07-31T06:58:56.892Z,22.10
2022-07-31T07:01:23.613Z,22.10
2022-07-31T07:03:50.344Z,22.20
2022-07-31T07:06:17.092Z,22.20
2022-07-31T07:08:43.756Z,22.30
2022-07-31T07:11:12.397Z,22.40
2022-07-31T07:13:45.681Z,22.50
2022-07-31T07:16:13.633Z,22.60
2022-07-31T07:18:40.321Z,22.60
2022-07-31T07:21:07.170Z,22.70
2022-07-31T07:23:33.871Z,22.80
2022-07-31T07:26:00.523Z,22.90
2022-07-31T07:28:30.262Z,23.00
2022-07-31T07:30:58.488Z,23.10
2022-07-31T07:33:41.711Z,23.20
2022-07-31T07:36:22.368Z,23.20
2022-07-31T07:38:56.016Z,23.30
2022-07-31T07:41:24.453Z,23.40
2022-07-31T07:43:52.394Z,23.50
2022-07-31T07:46:20.967Z,23.60
2022-07-31T07:48:47.598Z,23.70
2022-07-31T07:51:14.300Z,23.70
2022-07-31T07:53:40.953Z,23.80
2022-07-31T07:56:07.775Z,23.90
2022-07-31T07:58:34.590Z,23.90
2022-07-31T08:01:01.564Z,24.00
2022-07-31T08:03:50.377Z,24.10
2022-07-31T08:06:14.856Z,24.10
2022-07-31T08:08:41.453Z,24.10
2022-07-31T08:11:08.112Z,24.10
2022-07-31T08:13:34.727Z,24.10
2022-07-31T08:16:02.185Z,24.20
2022-07-31T08:18:29.887Z,24.20
2022-07-31T08:20:56.504Z,24.20
2022-07-31T08:23:23.215Z,24.20
2022-07-31T08:25:49.894Z,24.20
2022-07-31T08:28:19.485Z,24.20
2022-07-31T08:30:50.825Z,24.20
2022-07-31T08:33:17.494Z,24.10
2022-07-31T08:35:49.626Z,24.10
2022-07-31T08:38:18.527Z,24.10
2022-07-31T08:40:46.260Z,24.10
2022-07-31T08:46:02.814Z,24.10
2022-07-31T08:48:32.592Z,24.10
2022-07-31T08:51:03.283Z,24.20
2022-07-31T08:53:32.955Z,24.20
2022-07-31T08:56:00.352Z,24.30
2022-07-31T08:58:27.062Z,24.30
2022-07-31T09:00:54.491Z,24.40
2022-07-31T09:03:21.485Z,24.50
2022-07-31T09:05:48.155Z,24.50
2022-07-31T09:08:15.324Z,24.60
2022-07-31T09:10:46.284Z,24.60
2022-07-31T09:13:19.169Z,24.70
2022-07-31T09:15:46.531Z,24.70
2022-07-31T09:18:21.869Z,24.70
2022-07-31T09:21:02.272Z,24.80
2022-07-31T09:23:29.888Z,24.90
2022-07-31T09:26:00.144Z,24.90
2022-07-31T09:28:43.050Z,25.00
2022-07-31T09:31:11.639Z,25.10
2022-07-31T09:33:45.227Z,25.10
2022-07-31T09:36:13.694Z,25.20
2022-07-31T09:38:42.735Z,25.20
2022-07-31T09:41:56.012Z,25.30
2022-07-31T09:44:09.544Z,25.40
2022-07-31T09:46:42.173Z,25.50
2022-07-31T09:49:09.394Z,25.60
2022-07-31T09:51:47.019Z,25.60
2022-07-31T09:54:21.937Z,25.70
2022-07-31T09:56:50.097Z,25.70
2022-07-31T09:59:17.360Z,25.80
2022-07-31T10:01:48.587Z,25.80
2022-07-31T10:04:18.084Z,25.80
2022-07-31T10:06:48.841Z,25.90
2022-07-31T10:09:17.674Z,25.90
2022-07-31T10:11:46.027Z,25.90
2022-07-31T10:14:20.979Z,25.90
2022-07-31T10:16:50.664Z,25.90
2022-07-31T10:19:19.000Z,25.90
2022-07-31T10:21:56.643Z,25.80
2022-07-31T10:24:28.337Z,25.80
2022-07-31T10:27:10.842Z,25.80
2022-07-31T10:29:40.870Z,25.80
2022-07-31T10:32:08.733Z,25.80
2022-07-31T10:34:35.892Z,25.80
2022-07-31T10:37:18.876Z,25.80
2022-07-31T10:40:03.784Z,25.80
2022-07-31T10:42:30.363Z,25.80
2022-07-31T10:45:09.245Z,25.90
2022-07-31T10:47:36.110Z,25.90
2022-07-31T10:50:04.779Z,25.90
2022-07-31T10:52:33.294Z,26.00
2022-07-31T10:55:01.819Z,26.10
2022-07-31T10:57:33.671Z,26.10
2022-07-31T11:00:14.872Z,26.20
2022-07-31T11:02:41.576Z,26.30
2022-07-31T11:05:13.577Z,26.30
2022-07-31T11:07:45.785Z,26.40
2022-07-31T11:10:15.189Z,26.40
2022-07-31T11:12:43.757Z,26.50
2022-07-31T11:15:22.122Z,26.50
2022-07-31T11:18:24.057Z,26.60
2022-07-31T11:20:35.897Z,26.60
2022-07-31T11:23:08.662Z,26.60
2022-07-31T11:25:36.939Z,26.60
2022-07-31T11:28:27.356Z,26.70
2022-07-31T11:30:58.284Z,26.70
2022-07-31T11:33:41.673Z,26.80
2022-07-31T11:36:24.514Z,26.80
2022-07-31T11:38:53.044Z,26.80
2022-07-31T11:41:23.126Z,26.80
2022-07-31T11:43:52.269Z,26.80
2022-07-31T11:46:27.716Z,26.90
2022-07-31T11:48:55.815Z,26.90
2022-07-31T11:51:23.628Z,27.00
2022-07-31T11:53:56.839Z,27.00
2022-07-31T11:56:25.903Z,27.20
2022-07-31T11:58:55.150Z,27.30
2022-07-31T12:01:29.946Z,27.40
2022-07-31T12:04:01.625Z,27.50
2022-07-31T12:06:36.525Z,27.60
2022-07-31T12:09:04.139Z,27.60
2022-07-31T12:11:31.006Z,27.60
2022-07-31T12:13:59.276Z,27.70
2022-07-31T12:16:25.955Z,27.70
2022-07-31T12:19:00.760Z,27.70
2022-07-31T12:21:35.742Z,27.80
2022-07-31T12:24:09.627Z,27.80
2022-07-31T12:26:36.261Z,27.90
2022-07-31T12:29:09.961Z,27.90
2022-07-31T12:31:53.717Z,28.00
2022-07-31T12:34:31.681Z,28.10
2022-07-31T12:37:02.013Z,28.20
2022-07-31T12:39:54.084Z,28.30
2022-07-31T12:42:30.473Z,28.40
2022-07-31T12:45:01.050Z,28.40
2022-07-31T12:47:45.620Z,28.50
2022-07-31T12:50:18.092Z,28.60
2022-07-31T12:52:45.251Z,28.70
2022-07-31T12:55:17.142Z,28.70
2022-07-31T12:57:50.391Z,28.70
2022-07-31T13:00:19.483Z,28.70
2022-07-31T13:02:46.201Z,28.70
2022-07-31T13:05:16.176Z,28.70
2022-07-31T13:07:42.821Z,28.70
2022-07-31T13:10:19.981Z,28.70
2022-07-31T13:12:50.916Z,28.70
2022-07-31T13:15:31.119Z,28.70
2022-07-31T13:18:05.396Z,28.70
2022-07-31T13:20:39.672Z,28.70
2022-07-31T13:23:06.297Z,28.70
2022-07-31T13:25:32.997Z,28.70
2022-07-31T13:27:59.940Z,28.80
2022-07-31T13:30:28.251Z,28.80
2022-07-31T13:32:54.861Z,28.90
2022-07-31T13:35:28.255Z,29.00
2022-07-31T13:37:56.127Z,29.10
2022-07-31T13:40:42.900Z,29.10
2022-07-31T13:43:09.901Z,29.10
2022-07-31T13:45:36.607Z,29.10
2022-07-31T13:48:08.709Z,29.10
2022-07-31T13:50:40.226Z,29.00
2022-07-31T13:53:07.209Z,28.90
2022-07-31T13:55:33.867Z,28.80
2022-07-31T13:58:01.213Z,28.70
2022-07-31T14:00:29.665Z,28.60
2022-07-31T14:02:57.143Z,28.50
2022-07-31T14:05:26.452Z,28.40
2022-07-31T14:07:55.943Z,28.30
2022-07-31T14:10:23.152Z,28.20
2022-07-31T14:12:50.442Z,28.10
2022-07-31T14:15:28.595Z,28.00
2022-07-31T14:17:56.873Z,27.90
2022-07-31T14:20:23.674Z,27.80
2022-07-31T14:22:50.357Z,27.70
2022-07-31T14:25:17.420Z,27.60
2022-07-31T14:27:45.792Z,27.60
2022-07-31T14:30:15.079Z,27.50
2022-07-31T14:32:47.404Z,27.40
2022-07-31T14:35:14.786Z,27.20
2022-07-31T14:37:44.402Z,27.20
2022-07-31T14:40:14.267Z,27.10
2022-07-31T14:42:43.424Z,27.00
2022-07-31T14:45:11.248Z,27.00
2022-07-31T14:47:40.829Z,26.90
2022-07-31T14:50:12.013Z,26.70
2022-07-31T14:52:40.435Z,26.70
2022-07-31T14:55:07.703Z,26.60
2022-07-31T14:57:34.367Z,26.60
2022-07-31T15:00:01.608Z,26.60
2022-07-31T15:02:28.420Z,26.50
2022-07-31T15:04:55.410Z,26.50
2022-07-31T15:07:43.808Z,26.40
2022-07-31T15:10:12.340Z,26.40
2022-07-31T15:12:39.588Z,26.30
2022-07-31T15:15:07.619Z,26.20
2022-07-31T15:17:34.421Z,26.20
2022-07-31T15:20:03.826Z,26.10
2022-07-31T15:22:30.759Z,26.10
2022-07-31T15:24:57.450Z,26.10
2022-07-31T15:27:24.912Z,26.00
2022-07-31T15:30:03.612Z,26.00
2022-07-31T15:32:33.237Z,25.80
2022-07-31T15:34:59.903Z,25.80
2022-07-31T15:37:26.542Z,25.70
2022-07-31T15:40:02.613Z,25.70
2022-07-31T15:42:33.970Z,25.60
2022-07-31T15:45:00.938Z,25.60
2022-07-31T15:47:27.620Z,25.50
2022-07-31T15:49:54.330Z,25.50
2022-07-31T15:52:21.120Z,25.40
2022-07-31T15:54:51.708Z,25.40
2022-07-31T15:57:21.103Z,25.30
2022-07-31T15:59:48.580Z,25.30
2022-07-31T16:02:15.304Z,25.30
2022-07-31T16:04:52.793Z,25.30
2022-07-31T16:08:30.359Z,25.20
2022-07-31T16:10:15.299Z,25.20
2022-07-31T16:12:46.796Z,25.20
2022-07-31T16:15:14.197Z,25.20
2022-07-31T16:17:41.418Z,25.20
2022-07-31T16:20:25.593Z,25.20
2022-07-31T16:22:55.840Z,25.20
2022-07-31T16:25:23.827Z,25.20
2022-07-31T16:27:50.581Z,25.20
2022-07-31T16:30:17.260Z,25.20
2022-07-31T16:32:44.184Z,25.20
2022-07-31T16:35:11.927Z,25.20
2022-07-31T16:37:52.222Z,25.20
2022-07-31T16:40:28.245Z,25.20
2022-07-31T16:42:56.368Z,25.10
2022-07-31T16:45:23.264Z,25.20
2022-07-31T16:47:53.042Z,25.10
2022-07-31T16:50:22.292Z,25.10
2022-07-31T16:52:56.050Z,25.10
2022-07-31T16:55:59.620Z,25.10
2022-07-31T16:58:18.941Z,25.10
2022-07-31T17:00:51.768Z,25.00
2022-07-31T17:03:58.779Z,25.00
2022-07-31T17:06:03.751Z,24.90
2022-07-31T17:08:35.976Z,24.90
2022-07-31T17:14:01.907Z,24.80
2022-07-31T17:16:31.042Z,24.80
2022-07-31T17:18:57.960Z,24.80
2022-07-31T17:21:32.110Z,24.70
2022-07-31T17:23:59.709Z,24.70
2022-07-31T17:26:26.544Z,24.70
2022-07-31T17:29:02.417Z,24.60
2022-07-31T17:31:29.094Z,24.60
2022-07-31T17:34:00.015Z,24.60
2022-07-31T17:36:28.933Z,24.60
2022-07-31T17:38:56.889Z,24.60
2022-07-31T17:41:25.256Z,24.50
2022-07-31T17:43:55.932Z,24.50
2022-07-31T17:46:28.313Z,24.40
2022-07-31T17:49:11.565Z,24.40
2022-07-31T17:51:57.558Z,24.40
2022-07-31T17:54:27.986Z,24.40
2022-07-31T17:56:54.668Z,24.30
2022-07-31T17:59:23.952Z,24.30
2022-07-31T18:01:59.449Z,24.20
2022-07-31T18:04:27.585Z,24.20
2022-07-31T18:06:54.995Z,24.20
2022-07-31T18:09:23.505Z,24.20
2022-07-31T18:11:54.274Z,24.10
2022-07-31T18:14:24.204Z,24.10
2022-07-31T18:16:51.887Z,24.10
2022-07-31T18:19:18.720Z,24.10
2022-07-31T18:21:45.354Z,24.00
2022-07-31T18:24:11.978Z,24.00
2022-07-31T18:26:39.075Z,23.90
2022-07-31T18:29:06.063Z,23.90
2022-07-31T18:31:35.480Z,23.90
2022-07-31T18:34:04.149Z,23.90
2022-07-31T18:36:31.882Z,23.80
2022-07-31T18:38:58.654Z,23.80
2022-07-31T18:44:21.996Z,23.70
2022-07-31T18:46:49.065Z,23.70
2022-07-31T18:51:01.287Z,23.70
2022-07-31T18:52:03.283Z,23.60
2022-07-31T18:54:30.373Z,23.60
2022-07-31T18:56:57.112Z,23.60
2022-07-31T18:59:23.877Z,23.60
2022-07-31T19:01:50.518Z,23.50
2022-07-31T19:04:17.187Z,23.50
2022-07-31T19:06:45.071Z,23.50
2022-07-31T19:09:11.865Z,23.50
2022-07-31T19:11:38.477Z,23.50
2022-07-31T19:14:05.163Z,23.40
2022-07-31T19:16:31.844Z,23.40
2022-07-31T19:18:59.422Z,23.40
2022-07-31T19:21:42.559Z,23.40
2022-07-31T19:24:09.777Z,23.30
2022-07-31T19:26:39.000Z,23.30
2022-07-31T19:29:05.686Z,23.20
2022-07-31T19:31:32.404Z,23.20
2022-07-31T19:33:59.198Z,23.20
2022-07-31T19:36:25.936Z,23.20
2022-07-31T19:38:52.598Z,23.20
2022-07-31T19:41:20.853Z,23.20
2022-07-31T19:43:47.618Z,23.20
2022-07-31T19:46:14.399Z,23.10
2022-07-31T19:48:43.401Z,23.10
2022-07-31T19:51:11.025Z,23.10
2022-07-31T19:53:38.061Z,23.10
2022-07-31T19:56:06.146Z,23.00
2022-07-31T19:58:34.576Z,23.10
2022-07-31T20:01:02.310Z,23.00
2022-07-31T20:03:29.497Z,23.00
2022-07-31T20:05:56.747Z,23.00
2022-07-31T20:08:23.783Z,23.00
2022-07-31T20:10:50.534Z,23.00
2022-07-31T20:13:18.447Z,22.90
2022-07-31T20:15:52.166Z,22.90
2022-07-31T20:18:29.783Z,22.90
2022-07-31T20:21:03.563Z,22.90
2022-07-31T20:23:31.041Z,22.90
2022-07-31T20:25:57.892Z,22.80
2022-07-31T20:28:26.631Z,22.80
2022-07-31T20:30:53.565Z,22.80
2022-07-31T20:33:20.389Z,22.70
2022-07-31T20:35:49.428Z,22.80
2022-07-31T20:38:25.789Z,22.70
2022-07-31T20:40:55.648Z,22.70
2022-07-31T20:43:24.577Z,22.70
2022-07-31T20:45:51.504Z,22.70
2022-07-31T20:48:18.188Z,22.70
2022-07-31T20:50:47.752Z,22.70
2022-07-31T20:53:15.507Z,22.70
2022-07-31T20:55:46.625Z,22.60
2022-07-31T20:58:13.681Z,22.70
2022-07-31T21:00:41.014Z,22.70
2022-07-31T21:03:07.650Z,22.70
2022-07-31T21:05:34.284Z,22.60
2022-07-31T21:08:01.041Z,22.60
2022-07-31T21:10:29.683Z,22.60
2022-07-31T21:12:57.129Z,22.60
2022-07-31T21:15:40.774Z,22.60
2022-07-31T21:18:16.779Z,22.60
2022-07-31T21:20:52.341Z,22.60
2022-07-31T21:23:21.958Z,22.60
2022-07-31T21:25:48.974Z,22.60
2022-07-31T21:28:15.802Z,22.60
2022-07-31T21:30:42.641Z,22.50
2022-07-31T21:33:09.839Z,22.60
2022-07-31T21:35:39.078Z,22.50
2022-07-31T21:38:10.297Z,22.50
2022-07-31T21:40:38.786Z,22.60
2022-07-31T21:43:05.758Z,22.50
2022-07-31T21:45:49.637Z,22.50
2022-07-31T21:48:20.914Z,22.50
2022-07-31T21:50:47.708Z,22.50
2022-07-31T21:53:14.412Z,22.50
2022-07-31T21:55:41.244Z,22.50
2022-07-31T21:58:08.992Z,22.50
2022-07-31T22:00:36.668Z,22.50
2022-07-31T22:03:04.568Z,22.50
2022-07-31T22:05:50.528Z,22.40
2022-07-31T22:08:17.848Z,22.50
2022-07-31T22:10:44.875Z,22.50
2022-07-31T22:13:11.935Z,22.40
2022-07-31T22:15:51.333Z,22.40
2022-07-31T22:18:27.081Z,22.40
2022-07-31T22:20:54.069Z,22.40
2022-07-31T22:23:21.092Z,22.40
2022-07-31T22:25:51.115Z,22.40
2022-07-31T22:28:19.940Z,22.40
2022-07-31T22:30:47.299Z,22.40
2022-07-31T22:33:14.297Z,22.40
2022-07-31T22:35:41.097Z,22.40
2022-07-31T22:38:08.541Z,22.40
2022-07-31T22:40:35.439Z,22.40
2022-07-31T22:43:03.306Z,22.40
2022-07-31T22:45:30.401Z,22.40
2022-07-31T22:47:57.944Z,22.40
2022-07-31T22:50:25.164Z,22.40
2022-07-31T22:52:52.749Z,22.40
2022-07-31T22:55:19.942Z,22.40
2022-07-31T22:57:46.651Z,22.40
2022-07-31T23:00:15.034Z,22.30
2022-07-31T23:02:43.203Z,22.40
2022-07-31T23:05:10.535Z,22.30
2022-07-31T23:07:37.807Z,22.30
2022-07-31T23:10:08.532Z,22.30
2022-07-31T23:12:35.436Z,22.30
2022-07-31T23:15:02.225Z,22.30
2022-07-31T23:17:28.953Z,22.30
2022-07-31T23:19:56.056Z,22.30
2022-07-31T23:22:33.305Z,22.20
2022-07-31T23:25:05.723Z,22.20
2022-07-31T23:27:33.430Z,22.20
2022-07-31T23:30:00.516Z,22.20
2022-07-31T23:32:28.266Z,22.20
2022-07-31T23:34:55.019Z,22.20
2022-07-31T23:37:21.662Z,22.20
2022-07-31T23:39:48.331Z,22.20
2022-07-31T23:42:33.607Z,22.20
2022-07-31T23:45:00.282Z,22.20
2022-07-31T23:47:45.239Z,22.20
2022-07-31T23:50:14.281Z,22.10
2022-07-31T23:52:41.520Z,22.20
2022-07-31T23:55:08.710Z,22.10
2022-07-31T23:57:36.234Z,22.10
